LFTH 181530Z AUTO 23008KT 200V260 9999 FEW027/// ///CB 27/19 Q1009 TEMPO TSRA BECMG 33010KT

ElémentsDécodage
LFTH Station météo située sur l'aérodrome de HYERES Le-Palyvestre
181530Z émis le 18 du mois à 15h30 UTC
AUTO Bulletin édité par un automate
23008KT vent du 230°, 08 noeuds
200V260 vent de direction variable entre 200° et 260°
9999 visibilité horizontale supérieure à 10 Km
FEW027/// nuages rares (1/8 à 2/8) à 2700 pieds
 type de nuage non observable
///CB élement non décodé
27/19 température 27°C, point de rosée 19°C
 soit une humidité relative de 62%
Q1009 la pression au niveau de la mer (QNH) est de 1009 hPa
TEMPO fluctuation temporaire prévue
TSRA pluie d'orage
BECMG fluctuation du temps prévue
33010KT vent du 330°, 10 noeuds